sensor_id;sensor_type;location;lat;lon;timestamp;P1;durP1;ratioP1;P2;durP2;ratioP2
24163;SDS011;12319;49.204;8.116;2023-11-19T00:02:17;5.18;;;2.42;;
24163;SDS011;12319;49.204;8.116;2023-11-19T00:04:43;4.22;;;2.00;;
24163;SDS011;12319;49.204;8.116;2023-11-19T00:07:09;4.37;;;2.03;;
24163;SDS011;12319;49.204;8.116;2023-11-19T00:09:35;4.45;;;2.25;;
24163;SDS011;12319;49.204;8.116;2023-11-19T00:12:02;3.72;;;1.90;;
24163;SDS011;12319;49.204;8.116;2023-11-19T00:14:32;4.87;;;2.10;;
24163;SDS011;12319;49.204;8.116;2023-11-19T00:16:58;3.13;;;1.80;;
24163;SDS011;12319;49.204;8.116;2023-11-19T00:19:23;3.70;;;1.85;;
24163;SDS011;12319;49.204;8.116;2023-11-19T00:21:49;3.17;;;1.80;;
24163;SDS011;12319;49.204;8.116;2023-11-19T00:24:14;4.40;;;2.10;;
24163;SDS011;12319;49.204;8.116;2023-11-19T00:26:43;3.65;;;1.88;;
24163;SDS011;12319;49.204;8.116;2023-11-19T00:29:09;3.58;;;1.90;;
24163;SDS011;12319;49.204;8.116;2023-11-19T00:31:35;3.20;;;1.80;;
24163;SDS011;12319;49.204;8.116;2023-11-19T00:34:00;3.93;;;1.70;;
24163;SDS011;12319;49.204;8.116;2023-11-19T00:36:27;4.07;;;1.90;;
24163;SDS011;12319;49.204;8.116;2023-11-19T00:38:53;3.10;;;1.73;;
24163;SDS011;12319;49.204;8.116;2023-11-19T00:41:18;2.88;;;1.73;;
24163;SDS011;12319;49.204;8.116;2023-11-19T00:43:44;4.80;;;1.70;;
24163;SDS011;12319;49.204;8.116;2023-11-19T00:46:10;3.03;;;1.80;;
24163;SDS011;12319;49.204;8.116;2023-11-19T00:48:36;2.97;;;1.80;;
24163;SDS011;12319;49.204;8.116;2023-11-19T00:51:02;3.00;;;1.80;;
24163;SDS011;12319;49.204;8.116;2023-11-19T00:53:29;2.65;;;1.67;;
24163;SDS011;12319;49.204;8.116;2023-11-19T00:55:54;2.65;;;1.52;;
24163;SDS011;12319;49.204;8.116;2023-11-19T00:58:20;3.20;;;1.83;;
24163;SDS011;12319;49.204;8.116;2023-11-19T01:00:45;2.87;;;1.70;;
24163;SDS011;12319;49.204;8.116;2023-11-19T01:03:11;2.78;;;1.65;;
24163;SDS011;12319;49.204;8.116;2023-11-19T01:05:36;2.70;;;1.60;;
24163;SDS011;12319;49.204;8.116;2023-11-19T01:08:02;3.50;;;1.80;;
24163;SDS011;12319;49.204;8.116;2023-11-19T01:10:29;3.00;;;1.70;;
24163;SDS011;12319;49.204;8.116;2023-11-19T01:12:55;2.80;;;1.70;;
24163;SDS011;12319;49.204;8.116;2023-11-19T01:15:20;3.40;;;1.90;;
24163;SDS011;12319;49.204;8.116;2023-11-19T01:17:46;2.73;;;1.70;;
24163;SDS011;12319;49.204;8.116;2023-11-19T01:20:11;2.60;;;1.60;;
24163;SDS011;12319;49.204;8.116;2023-11-19T01:22:38;2.85;;;1.80;;
24163;SDS011;12319;49.204;8.116;2023-11-19T01:25:04;3.15;;;1.67;;
24163;SDS011;12319;49.204;8.116;2023-11-19T01:27:31;2.45;;;1.60;;
24163;SDS011;12319;49.204;8.116;2023-11-19T01:29:56;2.63;;;1.53;;
24163;SDS011;12319;49.204;8.116;2023-11-19T01:32:22;2.63;;;1.65;;
24163;SDS011;12319;49.204;8.116;2023-11-19T01:34:49;2.87;;;1.70;;
24163;SDS011;12319;49.204;8.116;2023-11-19T01:37:14;3.92;;;1.63;;
24163;SDS011;12319;49.204;8.116;2023-11-19T01:39:43;3.10;;;1.70;;
24163;SDS011;12319;49.204;8.116;2023-11-19T01:42:10;3.05;;;1.80;;
24163;SDS011;12319;49.204;8.116;2023-11-19T01:44:36;2.88;;;1.70;;
24163;SDS011;12319;49.204;8.116;2023-11-19T01:47:02;2.27;;;1.47;;
24163;SDS011;12319;49.204;8.116;2023-11-19T01:49:29;2.40;;;1.55;;
24163;SDS011;12319;49.204;8.116;2023-11-19T01:51:57;2.50;;;1.60;;
24163;SDS011;12319;49.204;8.116;2023-11-19T01:54:23;2.80;;;1.70;;
24163;SDS011;12319;49.204;8.116;2023-11-19T01:56:49;2.90;;;1.70;;
24163;SDS011;12319;49.204;8.116;2023-11-19T01:59:14;2.72;;;1.60;;
24163;SDS011;12319;49.204;8.116;2023-11-19T02:01:41;2.33;;;1.42;;
24163;SDS011;12319;49.204;8.116;2023-11-19T02:04:07;2.40;;;1.50;;
24163;SDS011;12319;49.204;8.116;2023-11-19T02:06:34;2.72;;;1.50;;
24163;SDS011;12319;49.204;8.116;2023-11-19T02:09:01;2.33;;;1.50;;
24163;SDS011;12319;49.204;8.116;2023-11-19T02:11:27;2.65;;;1.45;;
24163;SDS011;12319;49.204;8.116;2023-11-19T02:13:55;3.17;;;1.70;;
24163;SDS011;12319;49.204;8.116;2023-11-19T02:16:22;2.78;;;1.70;;
24163;SDS011;12319;49.204;8.116;2023-11-19T02:18:47;2.30;;;1.50;;
24163;SDS011;12319;49.204;8.116;2023-11-19T02:21:13;3.03;;;1.70;;
24163;SDS011;12319;49.204;8.116;2023-11-19T02:23:40;2.42;;;1.50;;
24163;SDS011;12319;49.204;8.116;2023-11-19T02:26:26;2.42;;;1.50;;
24163;SDS011;12319;49.204;8.116;2023-11-19T02:28:58;2.42;;;1.60;;
24163;SDS011;12319;49.204;8.116;2023-11-19T02:31:24;3.00;;;1.70;;
24163;SDS011;12319;49.204;8.116;2023-11-19T02:33:49;3.10;;;1.80;;
24163;SDS011;12319;49.204;8.116;2023-11-19T02:36:15;2.30;;;1.50;;
24163;SDS011;12319;49.204;8.116;2023-11-19T02:38:41;2.30;;;1.42;;
24163;SDS011;12319;49.204;8.116;2023-11-19T02:41:07;2.58;;;1.50;;
24163;SDS011;12319;49.204;8.116;2023-11-19T02:43:34;2.90;;;1.63;;
24163;SDS011;12319;49.204;8.116;2023-11-19T02:46:02;3.10;;;1.60;;
24163;SDS011;12319;49.204;8.116;2023-11-19T02:48:31;2.63;;;1.50;;
24163;SDS011;12319;49.204;8.116;2023-11-19T02:50:57;2.67;;;1.60;;
24163;SDS011;12319;49.204;8.116;2023-11-19T02:53:23;2.83;;;1.70;;
24163;SDS011;12319;49.204;8.116;2023-11-19T02:55:50;2.92;;;1.90;;
24163;SDS011;12319;49.204;8.116;2023-11-19T02:58:16;2.90;;;1.70;;
24163;SDS011;12319;49.204;8.116;2023-11-19T03:00:45;2.80;;;1.63;;
24163;SDS011;12319;49.204;8.116;2023-11-19T03:03:19;3.08;;;1.70;;
24163;SDS011;12319;49.204;8.116;2023-11-19T03:05:48;2.75;;;1.60;;
24163;SDS011;12319;49.204;8.116;2023-11-19T03:08:15;3.23;;;1.90;;
24163;SDS011;12319;49.204;8.116;2023-11-19T03:10:43;3.53;;;1.98;;
24163;SDS011;12319;49.204;8.116;2023-11-19T03:13:12;3.92;;;2.00;;
24163;SDS011;12319;49.204;8.116;2023-11-19T03:15:39;3.92;;;1.98;;
24163;SDS011;12319;49.204;8.116;2023-11-19T03:18:05;3.33;;;1.73;;
24163;SDS011;12319;49.204;8.116;2023-11-19T03:20:30;3.80;;;2.10;;
24163;SDS011;12319;49.204;8.116;2023-11-19T03:22:56;4.07;;;2.00;;
24163;SDS011;12319;49.204;8.116;2023-11-19T03:25:26;4.03;;;2.20;;
24163;SDS011;12319;49.204;8.116;2023-11-19T03:27:58;3.63;;;1.90;;
24163;SDS011;12319;49.204;8.116;2023-11-19T03:30:23;3.80;;;2.00;;
24163;SDS011;12319;49.204;8.116;2023-11-19T03:32:49;4.38;;;2.10;;
24163;SDS011;12319;49.204;8.116;2023-11-19T03:35:15;4.03;;;2.00;;
24163;SDS011;12319;49.204;8.116;2023-11-19T03:37:40;3.80;;;2.10;;
24163;SDS011;12319;49.204;8.116;2023-11-19T03:40:06;3.90;;;2.10;;
24163;SDS011;12319;49.204;8.116;2023-11-19T03:42:32;4.07;;;2.28;;
24163;SDS011;12319;49.204;8.116;2023-11-19T03:44:58;4.67;;;2.40;;
24163;SDS011;12319;49.204;8.116;2023-11-19T03:47:24;3.55;;;1.90;;
24163;SDS011;12319;49.204;8.116;2023-11-19T03:49:50;3.28;;;1.83;;
24163;SDS011;12319;49.204;8.116;2023-11-19T03:52:17;3.70;;;2.00;;
24163;SDS011;12319;49.204;8.116;2023-11-19T03:54:43;3.33;;;1.98;;
24163;SDS011;12319;49.204;8.116;2023-11-19T03:57:09;3.75;;;1.80;;
24163;SDS011;12319;49.204;8.116;2023-11-19T03:59:38;3.45;;;1.95;;
24163;SDS011;12319;49.204;8.116;2023-11-19T04:02:04;3.80;;;2.03;;
24163;SDS011;12319;49.204;8.116;2023-11-19T04:04:30;4.82;;;2.55;;
24163;SDS011;12319;49.204;8.116;2023-11-19T04:06:55;3.83;;;2.10;;
24163;SDS011;12319;49.204;8.116;2023-11-19T04:09:21;3.83;;;1.92;;
24163;SDS011;12319;49.204;8.116;2023-11-19T04:11:47;4.40;;;1.98;;
24163;SDS011;12319;49.204;8.116;2023-11-19T04:14:13;3.88;;;2.10;;
24163;SDS011;12319;49.204;8.116;2023-11-19T04:16:39;3.95;;;1.92;;
24163;SDS011;12319;49.204;8.116;2023-11-19T04:19:05;3.53;;;1.95;;
24163;SDS011;12319;49.204;8.116;2023-11-19T04:21:31;3.67;;;1.90;;
24163;SDS011;12319;49.204;8.116;2023-11-19T04:23:57;3.88;;;1.83;;
24163;SDS011;12319;49.204;8.116;2023-11-19T04:26:23;4.07;;;2.10;;
24163;SDS011;12319;49.204;8.116;2023-11-19T04:28:48;3.80;;;2.07;;
24163;SDS011;12319;49.204;8.116;2023-11-19T04:31:15;3.67;;;1.92;;
24163;SDS011;12319;49.204;8.116;2023-11-19T04:33:44;3.65;;;2.10;;
24163;SDS011;12319;49.204;8.116;2023-11-19T04:36:10;3.55;;;2.03;;
24163;SDS011;12319;49.204;8.116;2023-11-19T04:38:35;3.77;;;1.97;;
24163;SDS011;12319;49.204;8.116;2023-11-19T04:41:03;4.15;;;2.13;;
24163;SDS011;12319;49.204;8.116;2023-11-19T04:43:30;4.32;;;2.20;;
24163;SDS011;12319;49.204;8.116;2023-11-19T04:45:56;3.45;;;1.90;;
24163;SDS011;12319;49.204;8.116;2023-11-19T04:48:22;4.10;;;2.08;;
24163;SDS011;12319;49.204;8.116;2023-11-19T04:50:48;3.90;;;1.90;;
24163;SDS011;12319;49.204;8.116;2023-11-19T04:53:16;3.33;;;1.73;;
24163;SDS011;12319;49.204;8.116;2023-11-19T04:55:42;4.00;;;2.00;;
24163;SDS011;12319;49.204;8.116;2023-11-19T04:58:08;3.47;;;1.93;;
24163;SDS011;12319;49.204;8.116;2023-11-19T05:00:34;4.20;;;1.95;;
24163;SDS011;12319;49.204;8.116;2023-11-19T05:02:59;3.55;;;1.80;;
24163;SDS011;12319;49.204;8.116;2023-11-19T05:05:25;3.33;;;1.83;;
24163;SDS011;12319;49.204;8.116;2023-11-19T05:07:50;3.30;;;1.80;;
24163;SDS011;12319;49.204;8.116;2023-11-19T05:10:16;4.25;;;2.00;;
24163;SDS011;12319;49.204;8.116;2023-11-19T05:12:41;3.67;;;1.90;;
24163;SDS011;12319;49.204;8.116;2023-11-19T05:15:07;3.80;;;2.10;;
24163;SDS011;12319;49.204;8.116;2023-11-19T05:17:33;3.70;;;1.90;;
24163;SDS011;12319;49.204;8.116;2023-11-19T05:19:59;3.63;;;1.97;;
24163;SDS011;12319;49.204;8.116;2023-11-19T05:22:24;3.17;;;1.77;;
24163;SDS011;12319;49.204;8.116;2023-11-19T05:24:51;2.92;;;1.70;;
24163;SDS011;12319;49.204;8.116;2023-11-19T05:27:17;5.03;;;2.00;;
24163;SDS011;12319;49.204;8.116;2023-11-19T05:29:42;3.85;;;1.85;;
24163;SDS011;12319;49.204;8.116;2023-11-19T05:32:08;4.78;;;2.10;;
24163;SDS011;12319;49.204;8.116;2023-11-19T05:34:34;3.70;;;2.00;;
24163;SDS011;12319;49.204;8.116;2023-11-19T05:36:59;3.70;;;1.80;;
24163;SDS011;12319;49.204;8.116;2023-11-19T05:39:25;3.85;;;2.00;;
24163;SDS011;12319;49.204;8.116;2023-11-19T05:41:51;3.63;;;1.90;;
24163;SDS011;12319;49.204;8.116;2023-11-19T05:44:17;2.90;;;1.60;;
24163;SDS011;12319;49.204;8.116;2023-11-19T05:46:43;3.55;;;1.90;;
24163;SDS011;12319;49.204;8.116;2023-11-19T05:49:09;3.40;;;1.80;;
24163;SDS011;12319;49.204;8.116;2023-11-19T05:51:37;3.20;;;1.70;;
24163;SDS011;12319;49.204;8.116;2023-11-19T05:54:04;3.50;;;1.90;;
24163;SDS011;12319;49.204;8.116;2023-11-19T05:56:31;3.13;;;1.70;;
24163;SDS011;12319;49.204;8.116;2023-11-19T05:58:57;3.03;;;1.77;;
24163;SDS011;12319;49.204;8.116;2023-11-19T06:01:26;3.80;;;1.70;;
24163;SDS011;12319;49.204;8.116;2023-11-19T06:03:51;3.72;;;2.00;;
24163;SDS011;12319;49.204;8.116;2023-11-19T06:06:17;2.73;;;1.70;;
24163;SDS011;12319;49.204;8.116;2023-11-19T06:08:43;2.70;;;1.50;;
24163;SDS011;12319;49.204;8.116;2023-11-19T06:11:09;3.50;;;1.80;;
24163;SDS011;12319;49.204;8.116;2023-11-19T06:13:39;2.78;;;1.63;;
24163;SDS011;12319;49.204;8.116;2023-11-19T06:16:05;3.37;;;1.80;;
24163;SDS011;12319;49.204;8.116;2023-11-19T06:18:31;2.92;;;1.60;;
24163;SDS011;12319;49.204;8.116;2023-11-19T06:20:57;2.80;;;1.50;;
24163;SDS011;12319;49.204;8.116;2023-11-19T06:23:22;2.37;;;1.40;;
24163;SDS011;12319;49.204;8.116;2023-11-19T06:25:48;2.00;;;1.40;;
24163;SDS011;12319;49.204;8.116;2023-11-19T06:28:14;2.50;;;1.50;;
24163;SDS011;12319;49.204;8.116;2023-11-19T06:30:39;2.72;;;1.60;;
24163;SDS011;12319;49.204;8.116;2023-11-19T06:33:06;2.15;;;1.42;;
24163;SDS011;12319;49.204;8.116;2023-11-19T06:35:32;2.40;;;1.40;;
24163;SDS011;12319;49.204;8.116;2023-11-19T06:38:02;2.78;;;1.58;;
24163;SDS011;12319;49.204;8.116;2023-11-19T06:40:29;2.30;;;1.33;;
24163;SDS011;12319;49.204;8.116;2023-11-19T06:42:55;1.98;;;1.40;;
24163;SDS011;12319;49.204;8.116;2023-11-19T06:45:21;2.50;;;1.40;;
24163;SDS011;12319;49.204;8.116;2023-11-19T06:47:47;2.50;;;1.50;;
24163;SDS011;12319;49.204;8.116;2023-11-19T06:50:12;2.43;;;1.43;;
24163;SDS011;12319;49.204;8.116;2023-11-19T06:52:39;2.80;;;1.60;;
24163;SDS011;12319;49.204;8.116;2023-11-19T06:55:05;3.40;;;1.50;;
24163;SDS011;12319;49.204;8.116;2023-11-19T06:57:31;2.20;;;1.40;;
24163;SDS011;12319;49.204;8.116;2023-11-19T06:59:57;2.47;;;1.40;;
24163;SDS011;12319;49.204;8.116;2023-11-19T07:02:23;2.22;;;1.45;;
24163;SDS011;12319;49.204;8.116;2023-11-19T07:04:49;2.33;;;1.40;;
24163;SDS011;12319;49.204;8.116;2023-11-19T07:07:15;2.63;;;1.40;;
24163;SDS011;12319;49.204;8.116;2023-11-19T07:09:41;2.23;;;1.30;;
24163;SDS011;12319;49.204;8.116;2023-11-19T07:12:07;2.55;;;1.58;;
24163;SDS011;12319;49.204;8.116;2023-11-19T07:14:33;2.63;;;1.50;;
24163;SDS011;12319;49.204;8.116;2023-11-19T07:16:59;2.50;;;1.50;;
24163;SDS011;12319;49.204;8.116;2023-11-19T07:19:25;3.55;;;1.60;;
24163;SDS011;12319;49.204;8.116;2023-11-19T07:21:51;2.60;;;1.57;;
24163;SDS011;12319;49.204;8.116;2023-11-19T07:24:19;3.08;;;1.52;;
24163;SDS011;12319;49.204;8.116;2023-11-19T07:26:45;3.08;;;1.50;;
24163;SDS011;12319;49.204;8.116;2023-11-19T07:29:12;3.55;;;1.65;;
24163;SDS011;12319;49.204;8.116;2023-11-19T07:31:38;2.53;;;1.50;;
24163;SDS011;12319;49.204;8.116;2023-11-19T07:34:04;3.10;;;1.50;;
24163;SDS011;12319;49.204;8.116;2023-11-19T07:36:31;2.97;;;1.70;;
24163;SDS011;12319;49.204;8.116;2023-11-19T07:38:57;3.05;;;1.60;;
24163;SDS011;12319;49.204;8.116;2023-11-19T07:41:23;3.47;;;1.60;;
24163;SDS011;12319;49.204;8.116;2023-11-19T07:43:50;4.07;;;1.63;;
24163;SDS011;12319;49.204;8.116;2023-11-19T07:46:16;2.30;;;1.50;;
24163;SDS011;12319;49.204;8.116;2023-11-19T07:48:44;2.92;;;1.55;;
24163;SDS011;12319;49.204;8.116;2023-11-19T07:51:12;3.15;;;1.60;;
24163;SDS011;12319;49.204;8.116;2023-11-19T07:53:38;3.47;;;1.70;;
24163;SDS011;12319;49.204;8.116;2023-11-19T07:56:04;3.42;;;1.60;;
24163;SDS011;12319;49.204;8.116;2023-11-19T07:58:30;4.28;;;1.60;;
24163;SDS011;12319;49.204;8.116;2023-11-19T08:00:56;4.50;;;1.70;;
24163;SDS011;12319;49.204;8.116;2023-11-19T08:03:21;3.17;;;1.58;;
24163;SDS011;12319;49.204;8.116;2023-11-19T08:05:47;3.40;;;1.70;;
24163;SDS011;12319;49.204;8.116;2023-11-19T08:08:13;2.70;;;1.50;;
24163;SDS011;12319;49.204;8.116;2023-11-19T08:10:39;3.13;;;1.70;;
24163;SDS011;12319;49.204;8.116;2023-11-19T08:13:05;3.63;;;1.60;;
24163;SDS011;12319;49.204;8.116;2023-11-19T08:15:31;3.05;;;1.70;;
24163;SDS011;12319;49.204;8.116;2023-11-19T08:17:57;2.97;;;1.60;;
24163;SDS011;12319;49.204;8.116;2023-11-19T08:20:22;3.58;;;1.50;;
24163;SDS011;12319;49.204;8.116;2023-11-19T08:22:48;3.10;;;1.50;;
24163;SDS011;12319;49.204;8.116;2023-11-19T08:25:14;2.70;;;1.50;;
24163;SDS011;12319;49.204;8.116;2023-11-19T08:27:40;2.63;;;1.40;;
24163;SDS011;12319;49.204;8.116;2023-11-19T08:30:06;4.60;;;1.90;;
24163;SDS011;12319;49.204;8.116;2023-11-19T08:32:32;3.00;;;1.55;;
24163;SDS011;12319;49.204;8.116;2023-11-19T08:34:57;3.40;;;1.70;;
24163;SDS011;12319;49.204;8.116;2023-11-19T08:37:23;2.37;;;1.40;;
24163;SDS011;12319;49.204;8.116;2023-11-19T08:39:52;3.17;;;1.60;;
24163;SDS011;12319;49.204;8.116;2023-11-19T08:42:17;3.63;;;1.50;;
24163;SDS011;12319;49.204;8.116;2023-11-19T08:44:43;2.95;;;1.40;;
24163;SDS011;12319;49.204;8.116;2023-11-19T08:47:15;3.20;;;1.63;;
24163;SDS011;12319;49.204;8.116;2023-11-19T08:49:42;2.47;;;1.50;;
24163;SDS011;12319;49.204;8.116;2023-11-19T08:52:08;2.90;;;1.60;;
24163;SDS011;12319;49.204;8.116;2023-11-19T08:54:35;3.05;;;1.38;;
24163;SDS011;12319;49.204;8.116;2023-11-19T08:57:01;3.50;;;1.60;;
24163;SDS011;12319;49.204;8.116;2023-11-19T08:59:27;4.25;;;1.73;;
24163;SDS011;12319;49.204;8.116;2023-11-19T09:01:53;3.65;;;1.60;;
24163;SDS011;12319;49.204;8.116;2023-11-19T09:04:19;3.95;;;1.60;;
24163;SDS011;12319;49.204;8.116;2023-11-19T09:06:47;3.87;;;1.80;;
24163;SDS011;12319;49.204;8.116;2023-11-19T09:09:13;4.80;;;2.20;;
24163;SDS011;12319;49.204;8.116;2023-11-19T09:11:39;3.13;;;1.50;;
24163;SDS011;12319;49.204;8.116;2023-11-19T09:14:04;2.93;;;1.50;;
24163;SDS011;12319;49.204;8.116;2023-11-19T09:16:30;4.25;;;1.40;;
24163;SDS011;12319;49.204;8.116;2023-11-19T09:18:57;2.87;;;1.50;;
24163;SDS011;12319;49.204;8.116;2023-11-19T09:21:24;3.20;;;1.50;;
24163;SDS011;12319;49.204;8.116;2023-11-19T09:23:50;3.40;;;1.23;;
24163;SDS011;12319;49.204;8.116;2023-11-19T09:26:15;4.63;;;1.60;;
24163;SDS011;12319;49.204;8.116;2023-11-19T09:28:41;2.85;;;1.40;;
24163;SDS011;12319;49.204;8.116;2023-11-19T09:31:16;3.23;;;1.40;;
24163;SDS011;12319;49.204;8.116;2023-11-19T09:33:43;2.42;;;1.20;;
24163;SDS011;12319;49.204;8.116;2023-11-19T09:36:09;2.92;;;1.10;;
24163;SDS011;12319;49.204;8.116;2023-11-19T09:38:38;2.73;;;1.40;;
24163;SDS011;12319;49.204;8.116;2023-11-19T09:41:09;2.53;;;1.27;;
24163;SDS011;12319;49.204;8.116;2023-11-19T09:43:37;2.88;;;1.45;;
24163;SDS011;12319;49.204;8.116;2023-11-19T09:46:05;2.30;;;1.10;;
24163;SDS011;12319;49.204;8.116;2023-11-19T09:48:33;3.13;;;1.30;;
24163;SDS011;12319;49.204;8.116;2023-11-19T09:51:00;3.27;;;1.13;;
24163;SDS011;12319;49.204;8.116;2023-11-19T09:53:26;3.00;;;1.30;;
24163;SDS011;12319;49.204;8.116;2023-11-19T09:55:52;3.22;;;1.25;;
24163;SDS011;12319;49.204;8.116;2023-11-19T09:58:18;3.30;;;1.40;;
24163;SDS011;12319;49.204;8.116;2023-11-19T10:00:44;3.08;;;1.50;;
24163;SDS011;12319;49.204;8.116;2023-11-19T10:03:11;3.63;;;1.33;;
24163;SDS011;12319;49.204;8.116;2023-11-19T10:05:41;2.75;;;1.40;;
24163;SDS011;12319;49.204;8.116;2023-11-19T10:08:06;2.50;;;1.40;;
24163;SDS011;12319;49.204;8.116;2023-11-19T10:10:36;3.05;;;1.40;;
24163;SDS011;12319;49.204;8.116;2023-11-19T10:13:02;2.83;;;1.50;;
24163;SDS011;12319;49.204;8.116;2023-11-19T10:15:28;2.95;;;1.40;;
24163;SDS011;12319;49.204;8.116;2023-11-19T10:18:01;3.85;;;1.27;;
24163;SDS011;12319;49.204;8.116;2023-11-19T10:20:27;2.43;;;1.20;;
24163;SDS011;12319;49.204;8.116;2023-11-19T10:22:53;2.83;;;1.30;;
24163;SDS011;12319;49.204;8.116;2023-11-19T10:25:22;2.92;;;1.40;;
24163;SDS011;12319;49.204;8.116;2023-11-19T10:27:52;2.97;;;1.42;;
24163;SDS011;12319;49.204;8.116;2023-11-19T10:30:22;2.40;;;1.30;;
24163;SDS011;12319;49.204;8.116;2023-11-19T10:33:11;3.50;;;1.48;;
24163;SDS011;12319;49.204;8.116;2023-11-19T10:35:52;3.37;;;1.30;;
24163;SDS011;12319;49.204;8.116;2023-11-19T10:38:19;3.85;;;1.50;;
24163;SDS011;12319;49.204;8.116;2023-11-19T10:40:45;2.80;;;1.55;;
24163;SDS011;12319;49.204;8.116;2023-11-19T10:43:12;1.90;;;1.20;;
24163;SDS011;12319;49.204;8.116;2023-11-19T10:45:38;2.78;;;1.23;;
24163;SDS011;12319;49.204;8.116;2023-11-19T10:48:05;4.30;;;1.90;;
24163;SDS011;12319;49.204;8.116;2023-11-19T10:50:38;2.97;;;1.30;;
24163;SDS011;12319;49.204;8.116;2023-11-19T10:53:05;2.65;;;1.40;;
24163;SDS011;12319;49.204;8.116;2023-11-19T10:55:34;2.73;;;1.40;;
24163;SDS011;12319;49.204;8.116;2023-11-19T10:58:07;2.65;;;1.20;;
24163;SDS011;12319;49.204;8.116;2023-11-19T11:00:38;3.53;;;1.38;;
24163;SDS011;12319;49.204;8.116;2023-11-19T11:03:19;3.70;;;1.40;;
24163;SDS011;12319;49.204;8.116;2023-11-19T11:05:50;3.58;;;1.40;;
24163;SDS011;12319;49.204;8.116;2023-11-19T11:08:17;2.33;;;1.30;;
24163;SDS011;12319;49.204;8.116;2023-11-19T11:10:44;4.55;;;1.60;;
24163;SDS011;12319;49.204;8.116;2023-11-19T11:13:18;4.85;;;1.55;;
24163;SDS011;12319;49.204;8.116;2023-11-19T11:15:44;3.75;;;1.60;;
24163;SDS011;12319;49.204;8.116;2023-11-19T11:18:12;5.80;;;1.70;;
24163;SDS011;12319;49.204;8.116;2023-11-19T11:20:38;5.67;;;1.67;;
24163;SDS011;12319;49.204;8.116;2023-11-19T11:23:16;7.28;;;1.80;;
24163;SDS011;12319;49.204;8.116;2023-11-19T11:37:18;3.22;;;1.40;;
24163;SDS011;12319;49.204;8.116;2023-11-19T11:39:49;3.85;;;1.80;;
24163;SDS011;12319;49.204;8.116;2023-11-19T11:45:03;4.72;;;1.70;;
24163;SDS011;12319;49.204;8.116;2023-11-19T11:50:08;2.97;;;1.50;;
24163;SDS011;12319;49.204;8.116;2023-11-19T11:53:13;3.10;;;1.60;;
24163;SDS011;12319;49.204;8.116;2023-11-19T11:58:17;3.42;;;1.58;;
24163;SDS011;12319;49.204;8.116;2023-11-19T12:00:46;3.93;;;1.70;;
24163;SDS011;12319;49.204;8.116;2023-11-19T12:03:13;3.92;;;1.55;;
24163;SDS011;12319;49.204;8.116;2023-11-19T12:05:43;4.65;;;1.42;;
24163;SDS011;12319;49.204;8.116;2023-11-19T12:08:10;4.07;;;1.85;;
24163;SDS011;12319;49.204;8.116;2023-11-19T12:10:47;3.42;;;1.55;;
24163;SDS011;12319;49.204;8.116;2023-11-19T12:13:20;3.77;;;1.77;;
24163;SDS011;12319;49.204;8.116;2023-11-19T12:18:23;4.65;;;2.00;;
24163;SDS011;12319;49.204;8.116;2023-11-19T12:20:51;3.60;;;1.52;;
24163;SDS011;12319;49.204;8.116;2023-11-19T12:23:16;3.15;;;1.50;;
24163;SDS011;12319;49.204;8.116;2023-11-19T12:25:42;2.30;;;1.20;;
24163;SDS011;12319;49.204;8.116;2023-11-19T12:28:13;3.15;;;1.40;;
24163;SDS011;12319;49.204;8.116;2023-11-19T12:30:39;2.38;;;1.30;;
24163;SDS011;12319;49.204;8.116;2023-11-19T12:33:09;3.37;;;1.50;;
24163;SDS011;12319;49.204;8.116;2023-11-19T12:35:39;3.65;;;1.50;;
24163;SDS011;12319;49.204;8.116;2023-11-19T12:38:18;4.43;;;1.50;;
24163;SDS011;12319;49.204;8.116;2023-11-19T12:40:45;4.85;;;1.30;;
24163;SDS011;12319;49.204;8.116;2023-11-19T12:43:13;2.60;;;1.33;;
24163;SDS011;12319;49.204;8.116;2023-11-19T12:45:47;2.75;;;1.30;;
24163;SDS011;12319;49.204;8.116;2023-11-19T12:48:13;2.80;;;1.40;;
24163;SDS011;12319;49.204;8.116;2023-11-19T12:53:21;2.70;;;1.20;;
24163;SDS011;12319;49.204;8.116;2023-11-19T12:55:47;2.45;;;1.40;;
24163;SDS011;12319;49.204;8.116;2023-11-19T12:58:32;3.20;;;1.23;;
24163;SDS011;12319;49.204;8.116;2023-11-19T13:01:00;2.47;;;1.30;;
24163;SDS011;12319;49.204;8.116;2023-11-19T13:03:39;2.90;;;1.30;;
24163;SDS011;12319;49.204;8.116;2023-11-19T13:06:05;2.67;;;1.30;;
24163;SDS011;12319;49.204;8.116;2023-11-19T13:08:38;4.07;;;1.55;;
24163;SDS011;12319;49.204;8.116;2023-11-19T13:11:15;4.07;;;1.33;;
24163;SDS011;12319;49.204;8.116;2023-11-19T13:13:59;3.85;;;1.38;;
24163;SDS011;12319;49.204;8.116;2023-11-19T13:16:33;4.00;;;1.50;;
24163;SDS011;12319;49.204;8.116;2023-11-19T13:19:01;3.95;;;1.35;;
24163;SDS011;12319;49.204;8.116;2023-11-19T13:21:26;3.83;;;1.47;;
24163;SDS011;12319;49.204;8.116;2023-11-19T13:23:52;4.60;;;1.50;;
24163;SDS011;12319;49.204;8.116;2023-11-19T13:26:17;2.53;;;1.40;;
24163;SDS011;12319;49.204;8.116;2023-11-19T13:28:43;3.13;;;1.40;;
24163;SDS011;12319;49.204;8.116;2023-11-19T13:31:09;3.55;;;1.52;;
24163;SDS011;12319;49.204;8.116;2023-11-19T13:33:35;3.57;;;1.40;;
24163;SDS011;12319;49.204;8.116;2023-11-19T13:36:01;3.33;;;1.20;;
24163;SDS011;12319;49.204;8.116;2023-11-19T13:38:31;3.55;;;1.25;;
24163;SDS011;12319;49.204;8.116;2023-11-19T13:40:57;3.00;;;1.40;;
24163;SDS011;12319;49.204;8.116;2023-11-19T13:43:24;4.10;;;1.50;;
24163;SDS011;12319;49.204;8.116;2023-11-19T13:45:50;3.38;;;1.40;;
24163;SDS011;12319;49.204;8.116;2023-11-19T13:48:15;3.20;;;1.40;;
24163;SDS011;12319;49.204;8.116;2023-11-19T13:50:41;2.50;;;1.30;;
24163;SDS011;12319;49.204;8.116;2023-11-19T13:53:07;2.85;;;1.30;;
24163;SDS011;12319;49.204;8.116;2023-11-19T13:55:33;3.43;;;1.50;;
24163;SDS011;12319;49.204;8.116;2023-11-19T13:57:58;2.23;;;1.30;;
24163;SDS011;12319;49.204;8.116;2023-11-19T14:00:24;2.17;;;1.20;;
24163;SDS011;12319;49.204;8.116;2023-11-19T14:02:49;3.57;;;1.60;;
24163;SDS011;12319;49.204;8.116;2023-11-19T14:05:15;2.90;;;1.30;;
24163;SDS011;12319;49.204;8.116;2023-11-19T14:07:44;2.40;;;1.30;;
24163;SDS011;12319;49.204;8.116;2023-11-19T14:10:13;2.28;;;1.30;;
24163;SDS011;12319;49.204;8.116;2023-11-19T14:12:40;2.22;;;1.20;;
24163;SDS011;12319;49.204;8.116;2023-11-19T14:15:06;3.75;;;1.35;;
24163;SDS011;12319;49.204;8.116;2023-11-19T14:17:34;3.00;;;1.37;;
24163;SDS011;12319;49.204;8.116;2023-11-19T14:20:00;4.82;;;1.45;;
24163;SDS011;12319;49.204;8.116;2023-11-19T14:22:28;3.10;;;1.50;;
24163;SDS011;12319;49.204;8.116;2023-11-19T14:24:55;2.50;;;1.20;;
24163;SDS011;12319;49.204;8.116;2023-11-19T14:27:21;2.53;;;1.30;;
24163;SDS011;12319;49.204;8.116;2023-11-19T14:29:47;4.50;;;1.30;;
24163;SDS011;12319;49.204;8.116;2023-11-19T14:32:13;4.57;;;1.30;;
24163;SDS011;12319;49.204;8.116;2023-11-19T14:34:38;2.53;;;1.38;;
24163;SDS011;12319;49.204;8.116;2023-11-19T14:37:04;3.37;;;1.40;;
24163;SDS011;12319;49.204;8.116;2023-11-19T14:39:29;3.75;;;1.48;;
24163;SDS011;12319;49.204;8.116;2023-11-19T14:41:56;2.77;;;1.43;;
24163;SDS011;12319;49.204;8.116;2023-11-19T14:44:25;2.30;;;1.30;;
24163;SDS011;12319;49.204;8.116;2023-11-19T14:46:52;3.58;;;1.48;;
24163;SDS011;12319;49.204;8.116;2023-11-19T14:49:17;2.70;;;1.30;;
24163;SDS011;12319;49.204;8.116;2023-11-19T14:51:43;2.08;;;1.17;;
24163;SDS011;12319;49.204;8.116;2023-11-19T14:54:08;3.03;;;1.30;;
24163;SDS011;12319;49.204;8.116;2023-11-19T14:56:34;2.93;;;1.50;;
24163;SDS011;12319;49.204;8.116;2023-11-19T14:58:59;3.08;;;1.40;;
24163;SDS011;12319;49.204;8.116;2023-11-19T15:01:25;4.07;;;1.67;;
24163;SDS011;12319;49.204;8.116;2023-11-19T15:03:51;2.78;;;1.48;;
24163;SDS011;12319;49.204;8.116;2023-11-19T15:06:16;2.53;;;1.30;;
24163;SDS011;12319;49.204;8.116;2023-11-19T15:08:42;2.43;;;1.30;;
24163;SDS011;12319;49.204;8.116;2023-11-19T15:11:09;2.25;;;1.30;;
24163;SDS011;12319;49.204;8.116;2023-11-19T15:13:36;4.22;;;1.55;;